createdAt,value
2018-06-09T00:01:33.353Z,31.87
2018-06-09T00:04:01.460Z,32.73
2018-06-09T00:06:35.492Z,31.50
2018-06-09T00:09:05.342Z,30.30
2018-06-09T00:11:33.594Z,31.20
2018-06-09T00:14:02.003Z,30.63
2018-06-09T00:16:30.378Z,32.13
2018-06-09T00:18:58.486Z,31.67
2018-06-09T00:21:26.838Z,31.77
2018-06-09T00:23:55.188Z,31.70
2018-06-09T00:26:23.552Z,32.17
2018-06-09T00:28:51.996Z,31.77
2018-06-09T00:31:20.387Z,31.27
2018-06-09T00:33:48.802Z,33.87
2018-06-09T00:36:17.306Z,34.30
2018-06-09T00:38:45.403Z,36.73
2018-06-09T00:41:13.791Z,37.17
2018-06-09T00:43:42.180Z,36.53
2018-06-09T00:46:10.533Z,35.20
2018-06-09T00:48:38.935Z,37.73
2018-06-09T00:51:07.332Z,37.33
2018-06-09T00:53:35.705Z,38.53
2018-06-09T00:56:15.469Z,38.50
2018-06-09T00:58:43.939Z,39.17
2018-06-09T01:01:12.289Z,41.17
2018-06-09T01:03:40.674Z,41.37
2018-06-09T01:06:09.090Z,38.10
2018-06-09T01:08:37.487Z,41.20
2018-06-09T01:11:05.879Z,38.27
2018-06-09T01:13:34.272Z,39.37
2018-06-09T01:16:02.671Z,41.47
2018-06-09T01:18:31.045Z,47.87
2018-06-09T01:20:59.493Z,41.40
2018-06-09T01:23:27.839Z,42.60
2018-06-09T01:25:56.203Z,38.73
2018-06-09T01:28:24.564Z,40.03
2018-06-09T01:30:53.795Z,41.87
2018-06-09T01:33:22.131Z,41.30
2018-06-09T01:35:50.541Z,46.50
2018-06-09T01:38:18.896Z,45.57
2018-06-09T01:40:47.389Z,44.63
2018-06-09T01:43:15.759Z,43.03
2018-06-09T01:45:44.090Z,44.27
2018-06-09T01:48:12.486Z,46.43
2018-06-09T01:50:40.889Z,44.97
2018-06-09T01:53:09.291Z,45.57
2018-06-09T01:55:37.608Z,40.73
2018-06-09T01:58:05.700Z,39.47
2018-06-09T02:00:34.077Z,43.63
2018-06-09T02:03:02.487Z,44.80
2018-06-09T02:05:30.826Z,42.27
2018-06-09T02:07:59.260Z,40.37
2018-06-09T02:10:27.666Z,43.50
2018-06-09T02:12:56.062Z,47.10
2018-06-09T02:15:24.436Z,47.13
2018-06-09T02:17:52.789Z,42.13
2018-06-09T02:20:21.171Z,42.97
2018-06-09T02:22:49.546Z,43.47
2018-06-09T02:25:17.922Z,42.63
2018-06-09T02:27:46.316Z,43.20
2018-06-09T02:30:14.680Z,44.83
2018-06-09T02:32:43.087Z,44.07
2018-06-09T02:35:11.460Z,43.67
2018-06-09T02:37:39.836Z,48.30
2018-06-09T02:40:08.204Z,48.33
2018-06-09T02:42:36.566Z,48.03
2018-06-09T02:45:05.044Z,47.80
2018-06-09T02:47:33.410Z,47.77
2018-06-09T02:50:01.768Z,45.43
2018-06-09T02:52:30.162Z,44.27
2018-06-09T02:54:58.531Z,45.63
2018-06-09T02:57:26.877Z,45.00
2018-06-09T02:59:54.962Z,49.10
2018-06-09T03:02:23.327Z,45.17
2018-06-09T03:04:51.404Z,41.17
2018-06-09T03:07:19.778Z,42.03
2018-06-09T03:09:49.010Z,44.33
2018-06-09T03:12:17.382Z,44.10
2018-06-09T03:14:45.782Z,45.63
2018-06-09T03:17:14.160Z,44.50
2018-06-09T03:19:42.592Z,43.27
2018-06-09T03:22:10.720Z,46.43
2018-06-09T03:24:39.106Z,48.70
2018-06-09T03:27:07.444Z,46.73
2018-06-09T03:29:36.066Z,45.00
2018-06-09T03:32:04.438Z,49.80
2018-06-09T03:34:32.782Z,45.03
2018-06-09T03:37:00.874Z,49.07
2018-06-09T03:39:29.224Z,46.77
2018-06-09T03:41:57.618Z,44.17
2018-06-09T03:44:25.971Z,44.67
2018-06-09T03:46:54.068Z,45.07
2018-06-09T03:49:22.416Z,43.13
2018-06-09T03:51:50.818Z,43.57
2018-06-09T03:54:19.212Z,42.27
2018-06-09T03:56:47.581Z,43.13
2018-06-09T03:59:15.963Z,43.00
2018-06-09T04:01:44.344Z,45.93
2018-06-09T04:04:12.729Z,44.30
2018-06-09T04:06:41.827Z,43.33
2018-06-09T04:09:11.016Z,43.80
2018-06-09T04:11:39.444Z,43.27
2018-06-09T04:14:07.772Z,41.30
2018-06-09T04:16:36.209Z,39.43
2018-06-09T04:19:04.637Z,41.20
2018-06-09T04:21:32.969Z,40.80
2018-06-09T04:24:01.373Z,42.17
2018-06-09T04:26:29.454Z,43.40
2018-06-09T04:28:57.883Z,42.87
2018-06-09T04:31:26.262Z,43.33
2018-06-09T04:33:54.658Z,48.10
2018-06-09T04:36:22.997Z,51.80
2018-06-09T04:38:51.359Z,52.10
2018-06-09T04:41:19.782Z,47.17
2018-06-09T04:43:48.137Z,48.90
2018-06-09T04:46:16.485Z,51.57
2018-06-09T04:48:44.985Z,54.00
2018-06-09T04:51:13.387Z,53.40
2018-06-09T04:53:41.737Z,50.10
2018-06-09T04:56:10.097Z,50.20
2018-06-09T04:58:38.453Z,49.03
2018-06-09T05:01:06.863Z,45.93
2018-06-09T05:03:35.222Z,38.13
2018-06-09T05:06:03.339Z,37.90
2018-06-09T05:08:31.725Z,35.50
2018-06-09T05:11:00.089Z,35.60
2018-06-09T05:13:28.425Z,35.33
2018-06-09T05:15:56.527Z,34.00
2018-06-09T05:18:24.929Z,32.80
2018-06-09T05:20:53.313Z,37.30
2018-06-09T05:23:21.678Z,35.90
2018-06-09T05:25:50.058Z,35.93
2018-06-09T05:28:18.407Z,39.70
2018-06-09T05:30:46.831Z,39.63
2018-06-09T05:33:15.257Z,39.80
2018-06-09T05:35:43.601Z,38.60
2018-06-09T05:38:11.961Z,39.77
2018-06-09T05:40:40.383Z,37.63
2018-06-09T05:43:08.784Z,47.17
2018-06-09T05:45:37.251Z,46.80
2018-06-09T05:48:05.651Z,44.57
2018-06-09T05:50:33.992Z,44.40
2018-06-09T05:53:02.413Z,45.43
2018-06-09T05:55:30.792Z,44.07
2018-06-09T05:57:59.222Z,41.20
2018-06-09T06:00:27.595Z,42.87
2018-06-09T06:02:56.016Z,42.37
2018-06-09T06:05:24.446Z,38.03
2018-06-09T06:07:52.837Z,43.03
2018-06-09T06:10:21.195Z,42.15
2018-06-09T06:12:49.606Z,40.45
2018-06-09T06:15:17.973Z,42.43
2018-06-09T06:17:46.540Z,43.95
2018-06-09T06:20:14.968Z,42.43
2018-06-09T06:22:43.358Z,39.18
2018-06-09T06:25:11.928Z,38.90
2018-06-09T06:27:40.017Z,36.03
2018-06-09T06:30:08.442Z,34.40
2018-06-09T06:32:36.826Z,38.40
2018-06-09T06:35:05.316Z,41.35
2018-06-09T06:37:33.704Z,40.55
2018-06-09T06:40:02.203Z,35.88
2018-06-09T06:42:30.662Z,39.15
2018-06-09T06:44:59.147Z,37.78
2018-06-09T06:47:27.522Z,36.25
2018-06-09T06:49:56.160Z,34.30
2018-06-09T06:52:24.515Z,36.28
2018-06-09T06:54:53.491Z,33.05
2018-06-09T06:57:21.903Z,31.85
2018-06-09T06:59:51.227Z,32.10
2018-06-09T07:02:19.630Z,32.05
2018-06-09T07:04:48.076Z,32.60
2018-06-09T07:07:16.539Z,26.45
2018-06-09T07:09:44.952Z,29.72
2018-06-09T07:12:13.353Z,28.27
2018-06-09T07:14:41.738Z,30.37
2018-06-09T07:17:10.088Z,26.55
2018-06-09T07:19:40.702Z,28.87
2018-06-09T07:22:09.204Z,29.25
2018-06-09T07:24:37.563Z,28.45
2018-06-09T07:27:05.953Z,27.17
2018-06-09T07:29:34.423Z,26.00
2018-06-09T07:32:03.122Z,26.15
2018-06-09T07:34:31.558Z,27.05
2018-06-09T07:36:59.976Z,24.55
2018-06-09T07:39:28.343Z,25.95
2018-06-09T07:41:56.791Z,23.92
2018-06-09T07:44:25.220Z,23.85
2018-06-09T07:46:53.637Z,20.85
2018-06-09T07:49:22.023Z,24.47
2018-06-09T07:51:50.462Z,25.20
2018-06-09T07:54:18.861Z,23.22
2018-06-09T07:56:47.241Z,26.07
2018-06-09T07:59:15.646Z,22.82
2018-06-09T08:01:44.041Z,27.25
2018-06-09T08:04:12.538Z,27.98
2018-06-09T08:06:40.892Z,28.20
2018-06-09T08:09:09.266Z,27.17
2018-06-09T08:11:37.662Z,27.07
2018-06-09T08:14:06.085Z,28.45
2018-06-09T08:16:34.554Z,25.08
2018-06-09T08:19:03.062Z,27.13
2018-06-09T08:21:31.494Z,25.25
2018-06-09T08:23:59.932Z,25.62
2018-06-09T08:26:28.316Z,24.37
2018-06-09T08:28:56.701Z,21.55
2018-06-09T08:31:25.069Z,20.52
2018-06-09T08:33:53.491Z,18.40
2018-06-09T08:36:22.022Z,21.20
2018-06-09T08:38:50.476Z,19.07
2018-06-09T08:41:18.905Z,19.73
2018-06-09T08:43:46.984Z,19.15
2018-06-09T08:46:15.374Z,18.77
2018-06-09T08:48:43.716Z,18.17
2018-06-09T08:51:12.104Z,18.52
2018-06-09T08:53:40.209Z,18.77
2018-06-09T08:56:08.617Z,17.00
2018-06-09T08:58:37.050Z,19.07
2018-06-09T09:01:05.464Z,17.35
2018-06-09T09:03:33.872Z,18.45
2018-06-09T09:06:02.240Z,19.23
2018-06-09T09:08:30.657Z,18.35
2018-06-09T09:10:59.752Z,17.17
2018-06-09T09:13:28.206Z,16.65
2018-06-09T09:15:56.567Z,16.67
2018-06-09T09:18:24.966Z,18.82
2018-06-09T09:20:53.357Z,18.27
2018-06-09T09:23:21.761Z,20.48
2018-06-09T09:25:50.201Z,16.52
2018-06-09T09:28:18.580Z,17.27
2018-06-09T09:30:47.084Z,17.62
2018-06-09T09:33:15.535Z,16.57
2018-06-09T09:35:43.912Z,16.87
2018-06-09T09:38:12.375Z,16.95
2018-06-09T09:40:40.758Z,16.97
2018-06-09T09:43:10.314Z,13.93
2018-06-09T09:45:38.776Z,16.35
2018-06-09T09:48:07.165Z,14.80
2018-06-09T09:50:35.608Z,15.00
2018-06-09T09:53:04.187Z,16.05
2018-06-09T09:55:32.612Z,16.40
2018-06-09T09:58:02.281Z,18.40
2018-06-09T10:00:35.961Z,16.62
2018-06-09T10:03:04.395Z,17.02
2018-06-09T10:05:32.868Z,18.02
2018-06-09T10:08:01.226Z,13.93
2018-06-09T10:10:29.662Z,16.25
2018-06-09T10:12:58.070Z,15.68
2018-06-09T10:15:26.496Z,16.95
2018-06-09T10:17:54.868Z,17.25
2018-06-09T10:20:23.323Z,18.85
2018-06-09T10:22:51.727Z,17.15
2018-06-09T10:25:20.190Z,16.48
2018-06-09T10:27:48.592Z,16.52
2018-06-09T10:30:16.986Z,14.68
2018-06-09T10:32:45.160Z,15.80
2018-06-09T10:35:13.564Z,17.00
2018-06-09T10:37:41.930Z,15.00
2018-06-09T10:40:10.404Z,17.10
2018-06-09T10:42:38.758Z,14.33
2018-06-09T10:45:07.146Z,15.72
2018-06-09T10:47:35.546Z,15.78
2018-06-09T10:50:03.955Z,14.63
2018-06-09T10:52:32.416Z,15.50
2018-06-09T10:55:00.902Z,14.53
2018-06-09T10:57:29.314Z,15.38
2018-06-09T10:59:57.794Z,15.15
2018-06-09T11:02:26.307Z,14.93
2018-06-09T11:04:54.714Z,16.12
2018-06-09T11:07:23.092Z,16.37
2018-06-09T11:09:51.517Z,14.68
2018-06-09T11:12:19.916Z,15.32
2018-06-09T11:14:48.364Z,15.23
2018-06-09T11:17:16.776Z,16.55
2018-06-09T11:19:45.198Z,16.60
2018-06-09T11:22:13.585Z,17.65
2018-06-09T11:24:42.022Z,18.20
2018-06-09T11:27:10.492Z,17.20
2018-06-09T11:29:38.993Z,16.77
2018-06-09T11:32:07.090Z,16.50
2018-06-09T11:34:35.625Z,17.77
2018-06-09T11:37:04.075Z,17.40
2018-06-09T11:39:32.473Z,16.55
2018-06-09T11:42:00.858Z,18.55
2018-06-09T11:44:29.304Z,19.05
2018-06-09T11:46:57.768Z,18.15
2018-06-09T11:49:26.181Z,19.50
2018-06-09T11:51:54.557Z,17.85
2018-06-09T11:54:22.963Z,17.30
2018-06-09T11:56:51.416Z,18.25
2018-06-09T11:59:19.843Z,18.12
2018-06-09T12:01:48.398Z,17.90
2018-06-09T12:04:16.773Z,16.12
2018-06-09T12:06:45.316Z,16.37
2018-06-09T12:09:13.777Z,17.25
2018-06-09T12:11:42.246Z,17.55
2018-06-09T12:14:10.609Z,18.73
2018-06-09T12:16:39.048Z,14.93
2018-06-09T12:19:07.441Z,14.60
2018-06-09T12:21:35.870Z,12.55
2018-06-09T12:24:04.209Z,13.30
2018-06-09T12:26:32.668Z,13.18
2018-06-09T12:29:01.054Z,13.35
2018-06-09T12:31:29.706Z,11.85
2018-06-09T12:33:58.134Z,12.55
2018-06-09T12:36:26.574Z,12.78
2018-06-09T12:38:54.936Z,12.75
2018-06-09T12:41:23.472Z,11.63
2018-06-09T12:43:51.898Z,12.60
2018-06-09T12:46:20.324Z,12.78
2018-06-09T12:48:48.799Z,11.93
2018-06-09T12:51:17.170Z,12.63
2018-06-09T12:53:45.670Z,12.00
2018-06-09T12:56:14.100Z,11.65
2018-06-09T12:58:42.788Z,11.90
2018-06-09T13:01:11.214Z,11.45
2018-06-09T13:03:39.712Z,10.82
2018-06-09T13:06:08.117Z,10.93
2018-06-09T13:08:36.597Z,11.08
2018-06-09T13:11:05.316Z,10.82
2018-06-09T13:13:33.859Z,10.18
2018-06-09T13:16:02.369Z,10.03
2018-06-09T13:18:31.219Z,10.08
2018-06-09T13:20:59.720Z,10.05
2018-06-09T13:23:28.124Z,9.98
2018-06-09T13:25:56.618Z,10.00
2018-06-09T13:28:25.083Z,10.20
2018-06-09T13:30:53.532Z,11.22
2018-06-09T13:33:21.989Z,11.10
2018-06-09T13:35:50.513Z,11.85
2018-06-09T13:38:18.934Z,11.30
2018-06-09T13:40:47.431Z,11.03
2018-06-09T13:43:15.843Z,11.30
2018-06-09T13:45:44.256Z,12.05
2018-06-09T13:48:12.702Z,10.38
2018-06-09T13:50:41.184Z,8.78
2018-06-09T13:53:09.571Z,8.53
2018-06-09T13:55:37.979Z,6.60
2018-06-09T13:58:06.399Z,6.62
2018-06-09T14:00:34.885Z,6.58
2018-06-09T14:03:03.297Z,6.20
2018-06-09T14:05:31.753Z,5.87
2018-06-09T14:08:00.173Z,6.03
2018-06-09T14:10:28.634Z,6.05
2018-06-09T14:12:57.008Z,6.08
2018-06-09T14:15:25.096Z,6.03
2018-06-09T14:17:53.533Z,6.10
2018-06-09T14:20:21.953Z,6.03
2018-06-09T14:22:50.467Z,6.05
2018-06-09T14:25:18.901Z,5.60
2018-06-09T14:27:47.364Z,5.85
2018-06-09T14:30:15.792Z,7.90
2018-06-09T14:32:44.249Z,9.30
2018-06-09T14:35:12.612Z,8.48
2018-06-09T14:37:41.061Z,11.90
2018-06-09T14:40:09.511Z,11.13
2018-06-09T14:42:38.064Z,15.07
2018-06-09T14:45:06.198Z,20.27
2018-06-09T14:47:34.633Z,16.47
2018-06-09T14:50:03.076Z,15.63
2018-06-09T14:52:31.774Z,13.43
2018-06-09T14:55:00.232Z,14.13
2018-06-09T14:57:28.760Z,13.07
2018-06-09T14:59:56.823Z,11.13
2018-06-09T15:02:25.247Z,12.47
2018-06-09T15:04:53.719Z,15.70
2018-06-09T15:07:22.097Z,14.20
2018-06-09T15:09:50.530Z,16.27
2018-06-09T15:12:18.903Z,17.23
2018-06-09T15:14:47.428Z,13.23
2018-06-09T15:17:15.835Z,20.90
2018-06-09T15:19:44.460Z,22.70
2018-06-09T15:22:12.908Z,14.40
2018-06-09T15:24:41.341Z,14.70
2018-06-09T15:27:09.696Z,15.80
2018-06-09T15:29:37.859Z,15.03
2018-06-09T15:32:06.537Z,14.27
2018-06-09T15:34:34.997Z,15.77
2018-06-09T15:37:03.411Z,17.53
2018-06-09T15:39:32.141Z,15.83
2018-06-09T15:42:00.553Z,13.87
2018-06-09T15:44:28.983Z,14.37
2018-06-09T15:46:57.665Z,13.43
2018-06-09T15:49:25.838Z,12.10
2018-06-09T15:51:54.250Z,14.77
2018-06-09T15:54:22.656Z,16.43
2018-06-09T15:56:51.079Z,14.30
2018-06-09T15:59:19.489Z,13.77
2018-06-09T16:01:47.869Z,14.97
2018-06-09T16:04:16.331Z,15.00
2018-06-09T16:06:44.763Z,19.03
2018-06-09T16:09:13.794Z,21.30
2018-06-09T16:11:42.172Z,21.07
2018-06-09T16:14:10.945Z,22.40
2018-06-09T16:16:39.379Z,22.43
2018-06-09T16:19:07.798Z,16.47
2018-06-09T16:21:36.285Z,18.90
2018-06-09T16:24:04.682Z,20.07
2018-06-09T16:26:33.129Z,22.60
2018-06-09T16:29:01.512Z,24.07
2018-06-09T16:31:29.973Z,24.17
2018-06-09T16:33:58.332Z,23.40
2018-06-09T16:36:26.739Z,24.83
2018-06-09T16:38:55.161Z,19.73
2018-06-09T16:41:23.604Z,26.23
2018-06-09T16:43:52.018Z,25.50
2018-06-09T16:46:20.430Z,28.43
2018-06-09T16:48:48.850Z,29.33
2018-06-09T16:51:17.645Z,28.10
2018-06-09T16:53:46.128Z,29.50
2018-06-09T16:56:14.582Z,24.63
2018-06-09T16:58:42.952Z,27.67
2018-06-09T17:01:11.545Z,29.03
2018-06-09T17:03:39.914Z,22.57
2018-06-09T17:06:08.282Z,20.23
2018-06-09T17:08:36.688Z,18.27
2018-06-09T17:11:05.150Z,20.00
2018-06-09T17:13:33.620Z,21.97
2018-06-09T17:16:02.034Z,18.60
2018-06-09T17:18:31.234Z,23.10
2018-06-09T17:20:59.669Z,24.23
2018-06-09T17:23:28.157Z,20.90
2018-06-09T17:25:56.554Z,22.77
2018-06-09T17:28:24.970Z,23.77
2018-06-09T17:30:53.431Z,23.83
2018-06-09T17:33:21.838Z,25.33
2018-06-09T17:35:50.308Z,29.23
2018-06-09T17:38:18.398Z,30.80
2018-06-09T17:40:46.822Z,29.20
2018-06-09T17:43:15.277Z,30.93
2018-06-09T17:45:43.726Z,29.10
2018-06-09T17:48:11.845Z,31.33
2018-06-09T17:50:40.319Z,24.53
2018-06-09T17:53:08.771Z,25.43
2018-06-09T17:55:37.199Z,29.57
2018-06-09T17:58:05.713Z,34.13
2018-06-09T18:00:34.245Z,24.00
2018-06-09T18:03:02.705Z,27.87
2018-06-09T18:05:31.308Z,32.20
2018-06-09T18:07:59.787Z,26.37
2018-06-09T18:10:28.177Z,27.60
2018-06-09T18:12:56.681Z,31.73
2018-06-09T18:15:25.113Z,29.30
2018-06-09T18:17:53.484Z,33.93
2018-06-09T18:20:21.890Z,29.23
2018-06-09T18:22:50.386Z,28.00
2018-06-09T18:25:18.775Z,30.67
2018-06-09T18:27:47.207Z,31.07
2018-06-09T18:30:15.637Z,25.80
2018-06-09T18:32:43.998Z,27.57
2018-06-09T18:35:12.364Z,26.00
2018-06-09T18:37:40.832Z,23.93
2018-06-09T18:40:09.247Z,24.13
2018-06-09T18:42:37.680Z,25.37
2018-06-09T18:45:06.127Z,27.50
2018-06-09T18:47:34.502Z,28.30
2018-06-09T18:50:02.881Z,29.73
2018-06-09T18:52:31.291Z,31.40
2018-06-09T18:54:59.770Z,29.30
2018-06-09T18:57:27.865Z,28.03
2018-06-09T18:59:56.274Z,28.07
2018-06-09T19:02:24.669Z,27.70
2018-06-09T19:04:53.109Z,26.07
2018-06-09T19:07:21.468Z,29.00
2018-06-09T19:09:49.866Z,33.37
2018-06-09T19:12:18.268Z,25.00
2018-06-09T19:14:46.673Z,33.27
2018-06-09T19:17:15.056Z,27.70
2018-06-09T19:19:43.470Z,27.73
2018-06-09T19:22:11.943Z,26.33
2018-06-09T19:24:40.045Z,23.33
2018-06-09T19:27:08.484Z,29.93
2018-06-09T19:29:36.960Z,31.30
2018-06-09T19:32:05.362Z,27.07
2018-06-09T19:34:33.730Z,25.80
2018-06-09T19:37:01.876Z,28.30
2018-06-09T19:39:30.419Z,26.20
2018-06-09T19:41:58.838Z,31.97
2018-06-09T19:44:27.263Z,30.80
2018-06-09T19:46:55.580Z,30.50
2018-06-09T19:49:23.998Z,25.63
2018-06-09T19:51:52.459Z,32.80
2018-06-09T19:54:20.883Z,30.47
2018-06-09T19:56:49.335Z,26.87
2018-06-09T19:59:17.670Z,26.17
2018-06-09T20:01:46.160Z,26.37
2018-06-09T20:04:14.563Z,32.63
2018-06-09T20:06:43.006Z,32.27
2018-06-09T20:09:12.536Z,27.47
2018-06-09T20:11:40.979Z,27.10
2018-06-09T20:14:09.387Z,30.70
2018-06-09T20:16:38.611Z,34.80
2018-06-09T20:19:07.035Z,27.00
2018-06-09T20:21:35.517Z,29.47
2018-06-09T20:24:03.945Z,25.30
2018-06-09T20:26:32.350Z,23.83
2018-06-09T20:29:00.779Z,29.73
2018-06-09T20:31:29.217Z,29.73
2018-06-09T20:33:57.650Z,32.80
2018-06-09T20:36:26.141Z,31.00
2018-06-09T20:38:54.663Z,32.03
2018-06-09T20:41:23.161Z,31.33
2018-06-09T20:43:51.576Z,33.00
2018-06-09T20:46:19.979Z,27.53
2018-06-09T20:48:48.434Z,28.70
2018-06-09T20:51:16.904Z,30.47
2018-06-09T20:53:45.304Z,27.87
2018-06-09T20:56:13.733Z,23.70
2018-06-09T20:58:42.166Z,23.80
2018-06-09T21:01:10.595Z,27.13
2018-06-09T21:03:38.989Z,30.93
2018-06-09T21:06:07.442Z,36.13
2018-06-09T21:08:35.836Z,36.17
2018-06-09T21:11:04.280Z,31.63
2018-06-09T21:13:32.419Z,30.10
2018-06-09T21:16:01.744Z,31.43
2018-06-09T21:18:30.164Z,33.80
2018-06-09T21:20:58.644Z,25.00
2018-06-09T21:23:27.032Z,28.80
2018-06-09T21:25:55.455Z,30.63
2018-06-09T21:28:24.754Z,31.20
2018-06-09T21:31:00.813Z,31.67
2018-06-09T21:35:49.516Z,28.67
2018-06-09T21:38:18.632Z,31.47
2018-06-09T21:40:48.443Z,29.57
2018-06-09T21:43:22.443Z,31.60
2018-06-09T21:45:51.533Z,38.20
2018-06-09T21:48:20.654Z,31.47
2018-06-09T21:50:49.815Z,34.23
2018-06-09T21:53:18.005Z,30.50
2018-06-09T21:55:46.473Z,34.17
2018-06-09T21:58:14.914Z,36.20
2018-06-09T22:00:43.360Z,34.60
2018-06-09T22:03:11.788Z,38.33
2018-06-09T22:05:40.217Z,31.23
2018-06-09T22:08:08.671Z,31.00
2018-06-09T22:10:36.743Z,35.33
2018-06-09T22:13:04.936Z,35.80
2018-06-09T22:15:33.321Z,35.70
2018-06-09T22:18:01.803Z,35.20
2018-06-09T22:20:30.177Z,33.70
2018-06-09T22:22:58.872Z,39.50
2018-06-09T22:25:32.741Z,37.07
2018-06-09T22:28:01.123Z,35.27
2018-06-09T22:30:29.531Z,35.97
2018-06-09T22:32:57.892Z,34.87
2018-06-09T22:35:26.538Z,35.67
2018-06-09T22:37:54.920Z,39.53
2018-06-09T22:40:28.754Z,35.20
2018-06-09T22:42:57.142Z,38.03
2018-06-09T22:45:25.574Z,41.10
2018-06-09T22:47:53.968Z,38.17
2018-06-09T22:50:22.404Z,38.70
2018-06-09T22:52:50.835Z,36.40
2018-06-09T22:55:20.584Z,38.30
2018-06-09T22:57:49.079Z,38.10
2018-06-09T23:00:43.872Z,40.43
2018-06-09T23:03:13.303Z,40.47
2018-06-09T23:05:41.680Z,39.93
2018-06-09T23:08:10.107Z,38.30
2018-06-09T23:10:38.508Z,40.50
2018-06-09T23:13:07.002Z,41.97
2018-06-09T23:15:35.454Z,40.47
2018-06-09T23:18:03.896Z,39.90
2018-06-09T23:20:32.402Z,45.53
2018-06-09T23:23:00.833Z,44.40
2018-06-09T23:25:29.178Z,44.57
2018-06-09T23:27:57.520Z,37.93
2018-06-09T23:30:25.901Z,47.63
2018-06-09T23:32:54.300Z,40.70
2018-06-09T23:35:23.090Z,45.60
2018-06-09T23:37:52.070Z,44.47
2018-06-09T23:40:20.896Z,48.83
2018-06-09T23:42:49.266Z,38.87
2018-06-09T23:45:17.664Z,42.30
2018-06-09T23:47:46.268Z,41.40
2018-06-09T23:50:14.688Z,47.33
2018-06-09T23:52:43.088Z,39.73
2018-06-09T23:55:11.469Z,43.07
2018-06-09T23:57:40.199Z,42.27
